createdAt,value
2023-04-07T00:02:18.365Z,0.03
2023-04-07T00:04:45.463Z,0.23
2023-04-07T00:07:12.492Z,0.00
2023-04-07T00:09:39.362Z,0.10
2023-04-07T00:12:06.922Z,0.10
2023-04-07T00:14:33.879Z,0.10
2023-04-07T00:17:01.072Z,0.03
2023-04-07T00:19:28.105Z,0.00
2023-04-07T00:21:55.500Z,0.10
2023-04-07T00:24:33.439Z,0.00
2023-04-07T00:27:01.560Z,0.10
2023-04-07T00:29:28.592Z,0.10
2023-04-07T00:31:55.930Z,0.00
2023-04-07T00:34:22.887Z,0.00
2023-04-07T00:36:52.324Z,0.20
2023-04-07T00:39:19.721Z,0.10
2023-04-07T00:41:47.644Z,0.20
2023-04-07T00:44:14.782Z,0.00
2023-04-07T00:46:42.109Z,0.00
2023-04-07T00:49:11.190Z,0.10
2023-04-07T00:51:38.475Z,0.10
2023-04-07T00:54:05.609Z,0.00
2023-04-07T00:56:34.263Z,0.20
2023-04-07T00:59:01.285Z,0.10
2023-04-07T01:01:36.249Z,0.10
2023-04-07T01:04:35.536Z,0.10
2023-04-07T01:07:18.086Z,0.10
2023-04-07T01:10:01.889Z,0.10
2023-04-07T01:12:43.872Z,0.00
2023-04-07T01:15:13.446Z,0.10
2023-04-07T01:17:47.443Z,0.10
2023-04-07T01:20:17.729Z,0.10
2023-04-07T01:22:53.676Z,0.00
2023-04-07T01:25:49.541Z,0.20
2023-04-07T01:28:43.819Z,0.20
2023-04-07T01:31:11.920Z,0.10
2023-04-07T01:33:43.657Z,0.27
2023-04-07T01:36:10.795Z,0.20
2023-04-07T01:38:38.283Z,0.17
2023-04-07T01:41:05.448Z,0.10
2023-04-07T01:43:32.382Z,0.10
2023-04-07T01:46:02.002Z,0.20
2023-04-07T01:48:28.914Z,0.10
2023-04-07T01:50:56.399Z,1.07
2023-04-07T01:53:26.319Z,0.33
2023-04-07T01:55:53.758Z,0.10
2023-04-07T01:58:21.345Z,0.10
2023-04-07T02:00:49.084Z,0.10
2023-04-07T02:03:22.890Z,0.40
2023-04-07T02:05:52.393Z,0.10
2023-04-07T02:08:20.324Z,0.10
2023-04-07T02:10:47.975Z,0.20
2023-04-07T02:13:17.009Z,0.20
2023-04-07T02:15:47.945Z,0.10
2023-04-07T02:18:18.755Z,0.10
2023-04-07T02:20:46.261Z,0.13
2023-04-07T02:23:13.926Z,0.10
2023-04-07T02:25:41.759Z,0.10
2023-04-07T02:28:09.432Z,0.20
2023-04-07T02:30:37.496Z,0.10
2023-04-07T02:33:05.570Z,0.20
2023-04-07T02:35:32.592Z,0.20
2023-04-07T02:38:05.735Z,0.20
2023-04-07T02:40:37.070Z,0.10
2023-04-07T02:43:05.291Z,0.10
2023-04-07T02:45:32.247Z,0.10
2023-04-07T02:48:01.863Z,0.30
2023-04-07T02:50:29.358Z,0.10
2023-04-07T02:52:56.728Z,0.10
2023-04-07T02:55:24.952Z,0.47
2023-04-07T02:57:52.420Z,0.23
2023-04-07T03:00:30.538Z,0.73
2023-04-07T03:03:07.169Z,0.20
2023-04-07T03:05:37.321Z,0.00
2023-04-07T03:08:05.382Z,0.20
2023-04-07T03:10:32.616Z,0.30
2023-04-07T03:12:59.732Z,0.17
2023-04-07T03:15:27.288Z,0.03
2023-04-07T03:17:55.469Z,0.10
2023-04-07T03:20:23.130Z,0.10
2023-04-07T03:22:54.421Z,0.17
2023-04-07T03:25:29.032Z,0.20
2023-04-07T03:27:56.996Z,0.10
2023-04-07T03:30:26.408Z,0.10
2023-04-07T03:32:55.423Z,0.20
2023-04-07T03:35:23.311Z,0.10
2023-04-07T03:37:50.572Z,0.00
2023-04-07T03:40:20.214Z,0.10
2023-04-07T03:42:48.149Z,0.20
2023-04-07T03:45:17.470Z,0.20
2023-04-07T03:47:49.877Z,0.17
2023-04-07T03:50:17.775Z,0.10
2023-04-07T03:52:52.861Z,0.10
2023-04-07T03:55:24.545Z,0.10
2023-04-07T03:57:55.672Z,0.10
2023-04-07T04:00:23.866Z,0.20
2023-04-07T04:03:04.369Z,0.07
2023-04-07T04:05:36.899Z,0.10
2023-04-07T04:08:04.278Z,0.00
2023-04-07T04:10:34.471Z,0.10
2023-04-07T04:13:06.656Z,0.20
2023-04-07T04:15:33.768Z,0.10
2023-04-07T04:18:02.392Z,0.10
2023-04-07T04:20:31.264Z,0.10
2023-04-07T04:22:58.377Z,0.20
2023-04-07T04:25:26.137Z,0.10
2023-04-07T04:27:56.329Z,0.20
2023-04-07T04:30:26.091Z,0.10
2023-04-07T04:33:01.100Z,0.30
2023-04-07T04:35:35.299Z,0.10
2023-04-07T04:38:09.112Z,0.10
2023-04-07T04:40:37.504Z,0.10
2023-04-07T04:43:09.836Z,0.10
2023-04-07T04:45:39.854Z,0.10
2023-04-07T04:48:11.438Z,0.10
2023-04-07T04:50:40.317Z,0.10
2023-04-07T04:53:11.664Z,0.20
2023-04-07T04:55:48.949Z,0.20
2023-04-07T04:58:20.203Z,0.33
2023-04-07T05:00:50.562Z,0.10
2023-04-07T05:08:35.038Z,0.10
2023-04-07T05:19:29.807Z,0.17
2023-04-07T05:22:03.776Z,0.10
2023-04-07T05:24:35.402Z,0.10
2023-04-07T05:27:02.737Z,0.20
2023-04-07T05:29:31.600Z,0.10
2023-04-07T05:31:58.889Z,0.10
2023-04-07T05:34:27.477Z,0.20
2023-04-07T05:36:56.384Z,0.20
2023-04-07T05:39:23.577Z,0.10
2023-04-07T05:41:54.251Z,0.30
2023-04-07T05:44:25.324Z,0.10
2023-04-07T05:46:52.647Z,0.10
2023-04-07T05:49:22.075Z,0.10
2023-04-07T05:51:56.791Z,0.10
2023-04-07T05:54:24.491Z,0.17
2023-04-07T05:56:52.388Z,0.03
2023-04-07T05:59:20.248Z,0.37
2023-04-07T06:01:47.271Z,0.00
2023-04-07T06:04:14.354Z,0.10
2023-04-07T06:06:41.605Z,0.20
2023-04-07T06:09:08.603Z,0.20
2023-04-07T06:11:35.870Z,0.30
2023-04-07T06:14:02.831Z,0.73
2023-04-07T06:16:29.754Z,0.40
2023-04-07T06:18:56.840Z,0.13
2023-04-07T06:21:24.863Z,0.27
2023-04-07T06:23:52.011Z,0.20
2023-04-07T06:26:19.176Z,0.23
2023-04-07T06:28:46.230Z,0.17
2023-04-07T06:31:14.426Z,0.30
2023-04-07T06:33:41.890Z,0.10
2023-04-07T06:36:08.884Z,0.10
2023-04-07T06:38:36.573Z,0.30
2023-04-07T06:41:03.447Z,0.20
2023-04-07T06:43:30.851Z,0.23
2023-04-07T06:46:02.093Z,0.10
2023-04-07T06:48:29.262Z,0.20
2023-04-07T06:50:56.480Z,0.37
2023-04-07T06:53:23.350Z,0.20
2023-04-07T06:55:50.327Z,0.20
2023-04-07T06:58:17.334Z,0.33
2023-04-07T07:00:44.267Z,0.20
2023-04-07T07:03:11.829Z,0.20
2023-04-07T07:05:38.825Z,0.47
2023-04-07T07:08:05.783Z,0.17
2023-04-07T07:10:32.801Z,0.10
2023-04-07T07:13:00.427Z,0.30
2023-04-07T07:15:27.379Z,0.40
2023-04-07T07:17:54.390Z,0.20
2023-04-07T07:20:23.696Z,0.20
2023-04-07T07:22:53.825Z,0.20
2023-04-07T07:25:21.280Z,0.20
2023-04-07T07:27:53.249Z,0.10
2023-04-07T07:30:23.719Z,0.10
2023-04-07T07:32:51.177Z,0.10
2023-04-07T07:35:18.280Z,0.20
2023-04-07T07:37:45.267Z,0.10
2023-04-07T07:40:12.363Z,0.10
2023-04-07T07:42:39.345Z,0.10
2023-04-07T07:45:06.616Z,0.88
2023-04-07T07:47:34.289Z,0.20
2023-04-07T07:50:01.374Z,0.25
2023-04-07T07:52:28.304Z,0.20
2023-04-07T07:54:55.201Z,0.10
2023-04-07T07:57:22.303Z,0.20
2023-04-07T07:59:49.257Z,0.20
2023-04-07T08:02:20.864Z,0.10
2023-04-07T08:04:48.118Z,0.65
2023-04-07T08:07:16.319Z,0.30
2023-04-07T08:09:43.344Z,0.10
2023-04-07T08:12:10.638Z,0.47
2023-04-07T08:14:41.305Z,0.45
2023-04-07T08:17:08.315Z,0.10
2023-04-07T08:19:38.153Z,0.30
2023-04-07T08:22:05.380Z,0.30
2023-04-07T08:24:32.412Z,0.25
2023-04-07T08:26:59.321Z,0.10
2023-04-07T08:29:26.307Z,0.20
2023-04-07T08:31:53.399Z,0.20
2023-04-07T08:34:21.215Z,0.22
2023-04-07T08:36:49.331Z,0.10
2023-04-07T08:39:16.492Z,0.30
2023-04-07T08:41:45.195Z,0.20
2023-04-07T08:44:13.024Z,0.10
2023-04-07T08:46:42.431Z,0.20
2023-04-07T08:49:10.571Z,0.95
2023-04-07T08:51:38.364Z,0.10
2023-04-07T08:54:13.305Z,0.20
2023-04-07T08:56:43.678Z,0.65
2023-04-07T08:59:15.024Z,0.10
2023-04-07T09:01:42.349Z,0.38
2023-04-07T09:04:09.987Z,0.82
2023-04-07T09:06:37.514Z,0.20
2023-04-07T09:09:07.832Z,0.20
2023-04-07T09:11:37.192Z,0.10
2023-04-07T09:14:04.433Z,0.08
2023-04-07T09:16:31.565Z,0.20
2023-04-07T09:18:59.190Z,0.10
2023-04-07T09:21:27.141Z,0.25
2023-04-07T09:23:54.311Z,0.17
2023-04-07T09:26:22.841Z,0.10
2023-04-07T09:29:00.016Z,0.22
2023-04-07T09:31:59.456Z,0.10
2023-04-07T09:34:30.458Z,0.52
2023-04-07T09:36:57.721Z,0.32
2023-04-07T09:39:25.222Z,0.20
2023-04-07T09:41:52.571Z,0.40
2023-04-07T09:44:20.365Z,0.10
2023-04-07T09:46:54.048Z,0.10
2023-04-07T09:49:21.351Z,0.30
2023-04-07T09:51:56.843Z,0.10
2023-04-07T09:54:36.661Z,0.10
2023-04-07T09:57:04.941Z,0.20
2023-04-07T09:59:32.953Z,0.30
2023-04-07T10:02:04.751Z,0.10
2023-04-07T10:04:36.498Z,0.20
2023-04-07T10:07:04.341Z,0.00
2023-04-07T10:09:31.767Z,0.03
2023-04-07T10:11:59.749Z,0.10
2023-04-07T10:14:28.396Z,0.10
2023-04-07T10:16:55.617Z,0.00
2023-04-07T10:19:22.707Z,0.00
2023-04-07T10:21:51.420Z,0.10
2023-04-07T10:24:39.489Z,0.00
2023-04-07T10:27:09.299Z,0.50
2023-04-07T10:29:39.751Z,0.20
2023-04-07T10:32:06.903Z,0.00
2023-04-07T10:34:55.274Z,0.00
2023-04-07T10:37:22.830Z,0.00
2023-04-07T10:39:51.522Z,0.00
2023-04-07T10:42:50.744Z,0.10
2023-04-07T10:45:17.809Z,0.00
2023-04-07T10:48:03.164Z,0.00
2023-04-07T10:50:30.444Z,0.00
2023-04-07T10:53:10.659Z,0.00
2023-04-07T10:55:41.751Z,0.00
2023-04-07T10:58:24.419Z,0.00
2023-04-07T11:00:57.622Z,0.00
2023-04-07T11:03:24.895Z,0.00
2023-04-07T11:05:52.180Z,0.10
2023-04-07T11:08:38.784Z,0.00
2023-04-07T11:11:09.397Z,0.00
2023-04-07T11:13:43.235Z,0.00
2023-04-07T11:16:10.478Z,0.00
2023-04-07T11:18:38.377Z,0.00
2023-04-07T11:21:08.469Z,0.00
2023-04-07T11:23:42.358Z,0.00
2023-04-07T11:26:11.305Z,0.00
2023-04-07T11:28:54.662Z,0.00
2023-04-07T11:31:23.408Z,0.00
2023-04-07T11:33:55.242Z,0.00
2023-04-07T11:36:29.140Z,0.00
2023-04-07T11:38:57.593Z,0.00
2023-04-07T11:41:26.096Z,0.00
2023-04-07T11:44:12.166Z,0.00
2023-04-07T11:47:03.777Z,0.00
2023-04-07T11:49:31.858Z,0.00
2023-04-07T11:52:02.970Z,0.00
2023-04-07T11:55:00.278Z,0.10
2023-04-07T11:57:28.410Z,0.00
2023-04-07T12:00:08.849Z,0.00
2023-04-07T12:02:36.147Z,0.00
2023-04-07T12:05:03.866Z,0.00
2023-04-07T12:07:31.241Z,0.00
2023-04-07T12:09:58.179Z,0.00
2023-04-07T12:12:28.666Z,0.00
2023-04-07T12:14:56.264Z,0.00
2023-04-07T12:17:25.743Z,0.00
2023-04-07T12:19:53.320Z,0.00
2023-04-07T12:22:20.638Z,0.00
2023-04-07T12:24:47.596Z,0.00
2023-04-07T12:27:14.490Z,0.00
2023-04-07T12:29:41.717Z,0.00
2023-04-07T12:32:09.073Z,0.00
2023-04-07T12:34:37.677Z,0.00
2023-04-07T12:37:04.575Z,0.00
2023-04-07T12:39:31.703Z,0.00
2023-04-07T12:41:58.890Z,0.00
2023-04-07T12:44:26.033Z,0.00
2023-04-07T12:46:53.407Z,0.00
2023-04-07T12:49:20.471Z,0.00
2023-04-07T12:51:49.540Z,0.00
2023-04-07T12:54:16.513Z,0.00
2023-04-07T12:56:43.533Z,0.00
2023-04-07T12:59:10.425Z,0.00
2023-04-07T13:01:37.979Z,0.00
2023-04-07T13:04:05.189Z,0.00
2023-04-07T13:06:32.433Z,0.00
2023-04-07T13:08:59.332Z,0.00
2023-04-07T13:11:26.393Z,0.00
2023-04-07T13:13:55.814Z,0.00
2023-04-07T13:16:24.341Z,0.00
2023-04-07T13:18:51.498Z,0.00
2023-04-07T13:23:50.623Z,0.00
2023-04-07T13:26:17.720Z,0.00
2023-04-07T13:28:46.077Z,0.00
2023-04-07T13:31:16.419Z,0.00
2023-04-07T13:33:43.583Z,0.00
2023-04-07T13:36:10.764Z,0.00
2023-04-07T13:38:37.800Z,0.00
2023-04-07T13:41:04.816Z,0.25
2023-04-07T13:43:31.875Z,0.00
2023-04-07T13:45:58.897Z,0.03
2023-04-07T13:48:25.918Z,0.00
2023-04-07T13:50:52.943Z,0.00
2023-04-07T13:53:20.263Z,0.00
2023-04-07T13:55:47.383Z,0.00
2023-04-07T13:58:15.314Z,0.00
2023-04-07T14:00:42.427Z,0.00
2023-04-07T14:03:10.120Z,0.00
2023-04-07T14:05:37.351Z,0.00
2023-04-07T14:08:05.336Z,0.00
2023-04-07T14:10:36.204Z,0.00
2023-04-07T14:13:05.144Z,0.00
2023-04-07T14:15:32.436Z,0.00
2023-04-07T14:18:00.764Z,0.17
2023-04-07T14:20:27.754Z,0.20
2023-04-07T14:22:55.386Z,0.00
2023-04-07T14:25:23.355Z,0.00
2023-04-07T14:27:52.324Z,0.00
2023-04-07T14:30:19.562Z,1.65
2023-04-07T14:32:46.567Z,0.00
2023-04-07T14:35:13.785Z,0.00
2023-04-07T14:37:42.380Z,0.00
2023-04-07T14:40:09.787Z,0.08
2023-04-07T14:42:37.020Z,0.00
2023-04-07T14:45:04.507Z,0.00
2023-04-07T14:47:31.610Z,0.00
2023-04-07T14:49:58.626Z,0.00
2023-04-07T14:52:25.987Z,0.00
2023-04-07T14:54:54.409Z,0.28
2023-04-07T14:57:22.358Z,0.00
2023-04-07T14:59:49.293Z,0.00
2023-04-07T15:02:17.023Z,0.00
2023-04-07T15:04:44.204Z,0.00
2023-04-07T15:07:11.602Z,0.00
2023-04-07T15:09:39.048Z,0.00
2023-04-07T15:12:06.102Z,0.00
2023-04-07T15:14:33.137Z,0.28
2023-04-07T15:17:00.148Z,0.00
2023-04-07T15:19:27.229Z,0.00
2023-04-07T15:21:54.176Z,0.00
2023-04-07T15:24:22.244Z,0.00
2023-04-07T15:26:50.620Z,0.00
2023-04-07T15:29:17.800Z,0.00
2023-04-07T15:31:45.705Z,0.00
2023-04-07T15:34:13.947Z,0.00
2023-04-07T15:36:41.067Z,0.00
2023-04-07T15:39:08.135Z,0.00
2023-04-07T15:41:35.196Z,0.00
2023-04-07T15:44:03.313Z,0.00
2023-04-07T15:46:32.229Z,0.00
2023-04-07T15:49:02.177Z,0.00
2023-04-07T15:51:29.891Z,0.00
2023-04-07T15:53:59.654Z,0.10
2023-04-07T15:56:27.670Z,0.00
2023-04-07T15:58:56.364Z,0.00
2023-04-07T16:01:23.512Z,0.00
2023-04-07T16:03:51.456Z,0.00
2023-04-07T16:06:18.574Z,0.00
2023-04-07T16:08:45.644Z,0.00
2023-04-07T16:11:12.674Z,0.00
2023-04-07T16:13:40.416Z,0.00
2023-04-07T16:16:07.751Z,0.00
2023-04-07T16:18:35.021Z,0.00
2023-04-07T16:21:04.514Z,0.00
2023-04-07T16:23:32.142Z,0.00
2023-04-07T16:25:59.167Z,0.00
2023-04-07T16:28:26.147Z,0.00
2023-04-07T16:30:53.141Z,0.10
2023-04-07T16:33:20.443Z,0.00
2023-04-07T16:35:47.516Z,0.00
2023-04-07T16:38:14.716Z,0.00
2023-04-07T16:40:56.798Z,0.05
2023-04-07T16:43:30.076Z,0.00
2023-04-07T16:45:59.927Z,0.00
2023-04-07T16:48:29.527Z,0.00
2023-04-07T16:50:56.992Z,0.00
2023-04-07T16:53:24.408Z,0.00
2023-04-07T16:55:51.545Z,0.00
2023-04-07T16:58:19.782Z,0.00
2023-04-07T17:00:48.504Z,0.00
2023-04-07T17:03:15.965Z,0.00
2023-04-07T17:05:44.639Z,0.00
2023-04-07T17:08:11.839Z,0.00
2023-04-07T17:10:38.838Z,0.00
2023-04-07T17:13:06.113Z,0.00
2023-04-07T17:15:37.245Z,0.00
2023-04-07T17:18:04.369Z,0.00
2023-04-07T17:20:31.479Z,0.00
2023-04-07T17:22:58.743Z,0.00
2023-04-07T17:25:26.405Z,0.03
2023-04-07T17:27:55.496Z,0.00
2023-04-07T17:30:22.768Z,0.00
2023-04-07T17:32:50.755Z,0.00
2023-04-07T17:35:18.146Z,0.17
2023-04-07T17:37:45.300Z,0.00
2023-04-07T17:40:12.635Z,0.00
2023-04-07T17:42:40.116Z,0.00
2023-04-07T17:45:08.271Z,0.00
2023-04-07T17:47:35.649Z,0.00
2023-04-07T17:50:03.439Z,0.00
2023-04-07T17:52:30.735Z,0.00
2023-04-07T17:54:58.076Z,0.00
2023-04-07T17:57:27.092Z,0.00
2023-04-07T17:59:55.023Z,0.17
2023-04-07T18:02:23.572Z,0.00
2023-04-07T18:04:51.515Z,0.00
2023-04-07T18:07:19.661Z,0.90
2023-04-07T18:09:47.249Z,0.00
2023-04-07T18:12:15.846Z,0.00
2023-04-07T18:14:43.041Z,0.00
2023-04-07T18:17:10.954Z,0.00
2023-04-07T18:19:37.913Z,0.00
2023-04-07T18:22:05.516Z,0.00
2023-04-07T18:24:32.720Z,0.00
2023-04-07T18:26:59.918Z,0.00
2023-04-07T18:29:27.146Z,0.00
2023-04-07T18:31:54.577Z,0.00
2023-04-07T18:34:21.843Z,0.00
2023-04-07T18:36:49.024Z,0.10
2023-04-07T18:39:16.162Z,0.30
2023-04-07T18:41:45.384Z,1.08
2023-04-07T18:44:13.059Z,1.17
2023-04-07T18:46:40.301Z,0.85
2023-04-07T18:49:07.457Z,0.98
2023-04-07T18:51:34.541Z,1.20
2023-04-07T18:54:01.659Z,0.70
2023-04-07T18:56:30.690Z,0.10
2023-04-07T18:58:57.787Z,0.30
2023-04-07T19:01:24.947Z,0.10
2023-04-07T19:03:52.584Z,0.00
2023-04-07T19:06:20.630Z,0.03
2023-04-07T19:08:47.864Z,0.00
2023-04-07T19:11:15.043Z,0.00
2023-04-07T19:13:42.491Z,0.10
2023-04-07T19:16:10.188Z,0.00
2023-04-07T19:18:37.442Z,0.10
2023-04-07T19:21:06.364Z,0.20
2023-04-07T19:23:33.710Z,0.00
2023-04-07T19:26:01.846Z,0.10
2023-04-07T19:28:29.111Z,0.00
2023-04-07T19:30:56.323Z,0.10
2023-04-07T19:33:23.314Z,0.10
2023-04-07T19:35:50.447Z,0.10
2023-04-07T19:38:17.766Z,0.10
2023-04-07T19:40:44.792Z,0.10
2023-04-07T19:43:14.003Z,0.13
2023-04-07T19:45:41.098Z,0.10
2023-04-07T19:48:08.657Z,0.20
2023-04-07T19:50:41.434Z,0.10
2023-04-07T19:53:08.594Z,0.10
2023-04-07T19:55:37.378Z,0.38
2023-04-07T19:58:04.556Z,0.17
2023-04-07T20:00:37.874Z,0.20
2023-04-07T20:03:07.739Z,0.30
2023-04-07T20:05:35.081Z,0.10
2023-04-07T20:08:02.146Z,0.32
2023-04-07T20:10:29.472Z,0.10
2023-04-07T20:12:56.545Z,0.10
2023-04-07T20:15:26.097Z,0.20
2023-04-07T20:17:53.379Z,0.20
2023-04-07T20:20:20.617Z,0.40
2023-04-07T20:22:47.562Z,0.43
2023-04-07T20:25:14.518Z,0.30
2023-04-07T20:27:41.474Z,0.38
2023-04-07T20:30:09.044Z,0.60
2023-04-07T20:32:36.092Z,0.52
2023-04-07T20:35:03.685Z,0.17
2023-04-07T20:37:30.882Z,0.32
2023-04-07T20:39:58.813Z,0.40
2023-04-07T20:42:26.317Z,0.35
2023-04-07T20:44:58.962Z,0.17
2023-04-07T20:47:26.061Z,0.52
2023-04-07T20:49:55.386Z,0.28
2023-04-07T20:52:22.986Z,0.30
2023-04-07T20:54:49.949Z,0.28
2023-04-07T20:57:17.004Z,0.30
2023-04-07T20:59:46.907Z,0.30
2023-04-07T21:02:19.491Z,0.32
2023-04-07T21:04:46.677Z,0.40
2023-04-07T21:07:13.927Z,0.20
2023-04-07T21:09:41.540Z,0.10
2023-04-07T21:12:08.573Z,0.20
2023-04-07T21:14:36.255Z,0.45
2023-04-07T21:17:03.175Z,0.75
2023-04-07T21:19:30.142Z,0.13
2023-04-07T21:21:57.061Z,0.30
2023-04-07T21:24:24.067Z,0.10
2023-04-07T21:26:51.679Z,0.35
2023-04-07T21:29:18.634Z,0.35
2023-04-07T21:31:46.039Z,0.43
2023-04-07T21:34:13.373Z,0.70
2023-04-07T21:36:42.129Z,0.80
2023-04-07T21:39:12.471Z,0.50
2023-04-07T21:41:39.731Z,0.50
2023-04-07T21:44:09.641Z,0.90
2023-04-07T21:46:41.399Z,0.70
2023-04-07T21:49:16.838Z,0.40
2023-04-07T21:51:45.676Z,0.50
2023-04-07T21:54:13.596Z,0.32
2023-04-07T21:56:41.521Z,0.57
2023-04-07T21:59:08.881Z,0.60
2023-04-07T22:01:36.359Z,0.73
2023-04-07T22:04:03.405Z,0.30
2023-04-07T22:06:31.272Z,0.60
2023-04-07T22:09:01.164Z,0.63
2023-04-07T22:11:29.665Z,0.60
2023-04-07T22:13:56.593Z,0.80
2023-04-07T22:16:23.548Z,0.70
2023-04-07T22:18:50.961Z,0.80
2023-04-07T22:21:18.251Z,0.70
2023-04-07T22:23:45.503Z,0.63
2023-04-07T22:26:13.006Z,0.40
2023-04-07T22:28:39.950Z,0.43
2023-04-07T22:31:06.980Z,0.43
2023-04-07T22:33:33.957Z,0.60
2023-04-07T22:36:01.175Z,0.65
2023-04-07T22:38:28.144Z,0.63
2023-04-07T22:40:55.390Z,0.70
2023-04-07T22:43:22.506Z,0.70
2023-04-07T22:45:49.708Z,0.75
2023-04-07T22:48:16.699Z,0.60
2023-04-07T22:50:43.597Z,1.33
2023-04-07T22:53:10.516Z,0.63
2023-04-07T22:55:37.450Z,0.93
2023-04-07T22:58:04.562Z,0.73
2023-04-07T23:00:31.584Z,0.88
2023-04-07T23:02:58.758Z,0.98
2023-04-07T23:05:25.926Z,0.67
2023-04-07T23:07:53.395Z,0.70
2023-04-07T23:10:20.967Z,0.82
2023-04-07T23:12:47.912Z,0.88
2023-04-07T23:15:14.929Z,0.87
2023-04-07T23:17:44.942Z,1.70
2023-04-07T23:20:12.369Z,0.90
2023-04-07T23:22:39.309Z,1.03
2023-04-07T23:25:07.433Z,1.33
2023-04-07T23:27:34.470Z,1.70
2023-04-07T23:30:01.600Z,1.10
2023-04-07T23:32:28.760Z,1.30
2023-04-07T23:34:55.856Z,1.63
2023-04-07T23:37:22.806Z,1.60
2023-04-07T23:39:54.456Z,1.87
2023-04-07T23:42:21.414Z,2.03
2023-04-07T23:44:48.354Z,1.98
2023-04-07T23:47:15.556Z,2.37
2023-04-07T23:49:42.563Z,1.93
2023-04-07T23:52:09.768Z,3.07
2023-04-07T23:54:36.918Z,2.37
2023-04-07T23:57:03.899Z,2.63
2023-04-07T23:59:31.240Z,3.30
